sensor_id;sensor_type;location;lat;lon;timestamp;P1;durP1;ratioP1;P2;durP2;ratioP2
31091;SDS011;67728;53.122;12.776;2024-02-26T00:00:28;686.20;;;144.87;;
31091;SDS011;67728;53.122;12.776;2024-02-26T00:02:00;652.20;;;140.27;;
31091;SDS011;67728;53.122;12.776;2024-02-26T00:03:32;652.93;;;145.47;;
31091;SDS011;67728;53.122;12.776;2024-02-26T00:05:06;671.10;;;146.20;;
31091;SDS011;67728;53.122;12.776;2024-02-26T00:06:37;675.63;;;144.03;;
31091;SDS011;67728;53.122;12.776;2024-02-26T00:08:11;666.23;;;146.10;;
31091;SDS011;67728;53.122;12.776;2024-02-26T00:09:42;683.67;;;148.00;;
31091;SDS011;67728;53.122;12.776;2024-02-26T00:11:13;657.80;;;142.63;;
31091;SDS011;67728;53.122;12.776;2024-02-26T00:12:45;653.67;;;148.60;;
31091;SDS011;67728;53.122;12.776;2024-02-26T00:14:15;647.40;;;143.53;;
31091;SDS011;67728;53.122;12.776;2024-02-26T00:15:47;652.20;;;147.67;;
31091;SDS011;67728;53.122;12.776;2024-02-26T00:17:18;657.03;;;143.87;;
31091;SDS011;67728;53.122;12.776;2024-02-26T00:18:50;651.90;;;148.47;;
31091;SDS011;67728;53.122;12.776;2024-02-26T00:20:21;674.83;;;152.50;;
31091;SDS011;67728;53.122;12.776;2024-02-26T00:21:53;643.93;;;146.70;;
31091;SDS011;67728;53.122;12.776;2024-02-26T00:23:23;648.30;;;152.33;;
31091;SDS011;67728;53.122;12.776;2024-02-26T00:24:55;645.57;;;153.73;;
31091;SDS011;67728;53.122;12.776;2024-02-26T00:26:26;643.57;;;146.77;;
31091;SDS011;67728;53.122;12.776;2024-02-26T00:27:57;644.57;;;139.70;;
31091;SDS011;67728;53.122;12.776;2024-02-26T00:29:28;646.83;;;144.70;;
31091;SDS011;67728;53.122;12.776;2024-02-26T00:31:00;644.20;;;141.73;;
31091;SDS011;67728;53.122;12.776;2024-02-26T00:32:30;643.90;;;144.10;;
31091;SDS011;67728;53.122;12.776;2024-02-26T00:34:03;647.80;;;148.10;;
31091;SDS011;67728;53.122;12.776;2024-02-26T00:35:34;680.47;;;151.43;;
31091;SDS011;67728;53.122;12.776;2024-02-26T00:37:06;642.93;;;148.37;;
31091;SDS011;67728;53.122;12.776;2024-02-26T00:38:37;645.37;;;144.93;;
31091;SDS011;67728;53.122;12.776;2024-02-26T00:40:09;645.07;;;146.07;;
31091;SDS011;67728;53.122;12.776;2024-02-26T00:41:41;647.67;;;149.83;;
31091;SDS011;67728;53.122;12.776;2024-02-26T00:43:12;641.73;;;149.80;;
31091;SDS011;67728;53.122;12.776;2024-02-26T00:44:44;642.43;;;149.00;;
31091;SDS011;67728;53.122;12.776;2024-02-26T00:46:14;640.47;;;145.80;;
31091;SDS011;67728;53.122;12.776;2024-02-26T00:47:46;640.97;;;141.90;;
31091;SDS011;67728;53.122;12.776;2024-02-26T00:49:20;642.60;;;147.27;;
31091;SDS011;67728;53.122;12.776;2024-02-26T00:50:51;645.53;;;149.70;;
31091;SDS011;67728;53.122;12.776;2024-02-26T00:52:22;639.53;;;143.77;;
31091;SDS011;67728;53.122;12.776;2024-02-26T00:53:54;639.63;;;141.17;;
31091;SDS011;67728;53.122;12.776;2024-02-26T00:55:24;635.23;;;140.93;;
31091;SDS011;67728;53.122;12.776;2024-02-26T00:56:56;635.83;;;139.80;;
31091;SDS011;67728;53.122;12.776;2024-02-26T00:58:27;639.13;;;141.83;;
31091;SDS011;67728;53.122;12.776;2024-02-26T00:59:58;645.83;;;151.93;;
31091;SDS011;67728;53.122;12.776;2024-02-26T01:01:30;640.13;;;139.33;;
31091;SDS011;67728;53.122;12.776;2024-02-26T01:03:02;640.10;;;140.07;;
31091;SDS011;67728;53.122;12.776;2024-02-26T01:04:35;641.00;;;145.70;;
31091;SDS011;67728;53.122;12.776;2024-02-26T01:06:06;645.30;;;141.60;;
31091;SDS011;67728;53.122;12.776;2024-02-26T01:07:37;645.47;;;148.10;;
31091;SDS011;67728;53.122;12.776;2024-02-26T01:09:09;641.43;;;146.13;;
31091;SDS011;67728;53.122;12.776;2024-02-26T01:10:40;676.60;;;145.10;;
31091;SDS011;67728;53.122;12.776;2024-02-26T01:12:12;640.43;;;141.83;;
31091;SDS011;67728;53.122;12.776;2024-02-26T01:13:42;645.00;;;145.87;;
31091;SDS011;67728;53.122;12.776;2024-02-26T01:15:14;643.00;;;152.90;;
31091;SDS011;67728;53.122;12.776;2024-02-26T01:16:45;645.13;;;150.57;;
31091;SDS011;67728;53.122;12.776;2024-02-26T01:18:16;641.37;;;150.87;;
31091;SDS011;67728;53.122;12.776;2024-02-26T01:19:48;644.20;;;151.53;;
31091;SDS011;67728;53.122;12.776;2024-02-26T01:21:20;636.50;;;143.30;;
31091;SDS011;67728;53.122;12.776;2024-02-26T01:22:51;639.23;;;145.60;;
31091;SDS011;67728;53.122;12.776;2024-02-26T01:24:22;642.13;;;150.83;;
31091;SDS011;67728;53.122;12.776;2024-02-26T01:25:53;681.87;;;158.37;;
31091;SDS011;67728;53.122;12.776;2024-02-26T01:27:25;640.67;;;149.00;;
31091;SDS011;67728;53.122;12.776;2024-02-26T01:28:57;645.00;;;146.87;;
31091;SDS011;67728;53.122;12.776;2024-02-26T01:30:29;644.97;;;150.93;;
31091;SDS011;67728;53.122;12.776;2024-02-26T01:31:59;637.33;;;145.67;;
31091;SDS011;67728;53.122;12.776;2024-02-26T01:33:31;641.30;;;151.00;;
31091;SDS011;67728;53.122;12.776;2024-02-26T01:35:03;638.97;;;145.20;;
31091;SDS011;67728;53.122;12.776;2024-02-26T01:36:37;638.37;;;147.70;;
31091;SDS011;67728;53.122;12.776;2024-02-26T01:38:08;638.30;;;149.57;;
31091;SDS011;67728;53.122;12.776;2024-02-26T01:39:39;647.67;;;148.00;;
31091;SDS011;67728;53.122;12.776;2024-02-26T01:41:13;648.50;;;147.03;;
31091;SDS011;67728;53.122;12.776;2024-02-26T01:42:44;641.00;;;147.60;;
31091;SDS011;67728;53.122;12.776;2024-02-26T01:44:16;637.87;;;141.93;;
31091;SDS011;67728;53.122;12.776;2024-02-26T01:45:47;675.13;;;147.73;;
31091;SDS011;67728;53.122;12.776;2024-02-26T01:47:19;636.20;;;141.83;;
31091;SDS011;67728;53.122;12.776;2024-02-26T01:48:50;642.83;;;145.90;;
31091;SDS011;67728;53.122;12.776;2024-02-26T01:50:23;636.27;;;146.00;;
31091;SDS011;67728;53.122;12.776;2024-02-26T01:51:54;644.50;;;148.37;;
31091;SDS011;67728;53.122;12.776;2024-02-26T01:53:26;637.07;;;147.47;;
31091;SDS011;67728;53.122;12.776;2024-02-26T01:54:57;639.23;;;148.87;;
31091;SDS011;67728;53.122;12.776;2024-02-26T01:56:28;639.80;;;148.87;;
31091;SDS011;67728;53.122;12.776;2024-02-26T01:58:01;637.80;;;146.43;;
31091;SDS011;67728;53.122;12.776;2024-02-26T01:59:32;630.63;;;135.63;;
31091;SDS011;67728;53.122;12.776;2024-02-26T02:01:05;685.00;;;143.27;;
31091;SDS011;67728;53.122;12.776;2024-02-26T02:02:36;647.50;;;145.73;;
31091;SDS011;67728;53.122;12.776;2024-02-26T02:04:11;637.27;;;139.77;;
31091;SDS011;67728;53.122;12.776;2024-02-26T02:05:44;640.13;;;138.43;;
31091;SDS011;67728;53.122;12.776;2024-02-26T02:07:16;640.50;;;137.23;;
31091;SDS011;67728;53.122;12.776;2024-02-26T02:08:47;640.17;;;139.87;;
31091;SDS011;67728;53.122;12.776;2024-02-26T02:10:19;636.17;;;140.20;;
31091;SDS011;67728;53.122;12.776;2024-02-26T02:11:53;643.90;;;139.37;;
31091;SDS011;67728;53.122;12.776;2024-02-26T02:13:24;641.50;;;138.67;;
31091;SDS011;67728;53.122;12.776;2024-02-26T02:14:55;635.60;;;140.90;;
31091;SDS011;67728;53.122;12.776;2024-02-26T02:16:27;637.37;;;137.00;;
31091;SDS011;67728;53.122;12.776;2024-02-26T02:17:57;639.00;;;142.67;;
31091;SDS011;67728;53.122;12.776;2024-02-26T02:19:29;645.10;;;145.03;;
31091;SDS011;67728;53.122;12.776;2024-02-26T02:21:01;679.90;;;143.17;;
31091;SDS011;67728;53.122;12.776;2024-02-26T02:22:33;638.40;;;144.07;;
31091;SDS011;67728;53.122;12.776;2024-02-26T02:24:03;644.03;;;141.93;;
31091;SDS011;67728;53.122;12.776;2024-02-26T02:25:35;639.93;;;135.93;;
31091;SDS011;67728;53.122;12.776;2024-02-26T02:27:06;636.30;;;134.80;;
31091;SDS011;67728;53.122;12.776;2024-02-26T02:28:38;643.20;;;136.77;;
31091;SDS011;67728;53.122;12.776;2024-02-26T02:30:10;634.00;;;132.17;;
31091;SDS011;67728;53.122;12.776;2024-02-26T02:31:42;638.37;;;133.40;;
31091;SDS011;67728;53.122;12.776;2024-02-26T02:33:13;637.30;;;132.27;;
31091;SDS011;67728;53.122;12.776;2024-02-26T02:34:45;632.80;;;128.77;;
31091;SDS011;67728;53.122;12.776;2024-02-26T02:36:18;670.00;;;132.73;;
31091;SDS011;67728;53.122;12.776;2024-02-26T02:37:49;636.60;;;131.13;;
31091;SDS011;67728;53.122;12.776;2024-02-26T02:39:22;638.03;;;134.77;;
31091;SDS011;67728;53.122;12.776;2024-02-26T02:40:53;638.63;;;133.63;;
31091;SDS011;67728;53.122;12.776;2024-02-26T02:42:24;635.83;;;134.27;;
31091;SDS011;67728;53.122;12.776;2024-02-26T02:43:56;632.57;;;132.93;;
31091;SDS011;67728;53.122;12.776;2024-02-26T02:45:26;635.87;;;134.33;;
31091;SDS011;67728;53.122;12.776;2024-02-26T02:46:58;633.40;;;133.70;;
31091;SDS011;67728;53.122;12.776;2024-02-26T02:48:29;637.40;;;132.23;;
31091;SDS011;67728;53.122;12.776;2024-02-26T02:50:00;637.13;;;131.27;;
31091;SDS011;67728;53.122;12.776;2024-02-26T02:51:32;636.47;;;130.80;;
31091;SDS011;67728;53.122;12.776;2024-02-26T02:53:04;634.33;;;130.40;;
31091;SDS011;67728;53.122;12.776;2024-02-26T02:54:35;637.50;;;129.03;;
31091;SDS011;67728;53.122;12.776;2024-02-26T02:56:07;654.00;;;131.97;;
31091;SDS011;67728;53.122;12.776;2024-02-26T02:57:37;636.87;;;131.07;;
31091;SDS011;67728;53.122;12.776;2024-02-26T02:59:11;634.03;;;130.03;;
31091;SDS011;67728;53.122;12.776;2024-02-26T03:00:41;639.43;;;131.00;;
31091;SDS011;67728;53.122;12.776;2024-02-26T03:02:13;635.73;;;130.50;;
31091;SDS011;67728;53.122;12.776;2024-02-26T03:03:44;638.63;;;128.93;;
31091;SDS011;67728;53.122;12.776;2024-02-26T03:05:15;633.23;;;124.23;;
31091;SDS011;67728;53.122;12.776;2024-02-26T03:06:48;643.40;;;124.57;;
31091;SDS011;67728;53.122;12.776;2024-02-26T03:08:19;638.17;;;126.00;;
31091;SDS011;67728;53.122;12.776;2024-02-26T03:09:50;635.83;;;122.50;;
31091;SDS011;67728;53.122;12.776;2024-02-26T03:11:22;669.33;;;125.20;;
31091;SDS011;67728;53.122;12.776;2024-02-26T03:12:53;631.53;;;125.27;;
31091;SDS011;67728;53.122;12.776;2024-02-26T03:14:26;643.57;;;123.13;;
31091;SDS011;67728;53.122;12.776;2024-02-26T03:15:57;631.63;;;122.93;;
31091;SDS011;67728;53.122;12.776;2024-02-26T03:17:28;632.37;;;121.33;;
31091;SDS011;67728;53.122;12.776;2024-02-26T03:18:59;633.97;;;121.53;;
31091;SDS011;67728;53.122;12.776;2024-02-26T03:20:31;631.60;;;123.53;;
31091;SDS011;67728;53.122;12.776;2024-02-26T03:22:03;637.27;;;125.23;;
31091;SDS011;67728;53.122;12.776;2024-02-26T03:23:34;631.27;;;123.10;;
31091;SDS011;67728;53.122;12.776;2024-02-26T03:25:07;629.63;;;126.97;;
31091;SDS011;67728;53.122;12.776;2024-02-26T03:26:39;632.63;;;124.47;;
31091;SDS011;67728;53.122;12.776;2024-02-26T03:28:09;631.27;;;124.97;;
31091;SDS011;67728;53.122;12.776;2024-02-26T03:29:41;632.00;;;127.50;;
31091;SDS011;67728;53.122;12.776;2024-02-26T03:31:12;636.90;;;125.50;;
31091;SDS011;67728;53.122;12.776;2024-02-26T03:32:43;636.87;;;128.53;;
31091;SDS011;67728;53.122;12.776;2024-02-26T03:34:14;635.73;;;127.10;;
31091;SDS011;67728;53.122;12.776;2024-02-26T03:35:47;631.73;;;126.63;;
31091;SDS011;67728;53.122;12.776;2024-02-26T03:37:19;627.97;;;125.00;;
31091;SDS011;67728;53.122;12.776;2024-02-26T03:38:51;635.40;;;128.47;;
31091;SDS011;67728;53.122;12.776;2024-02-26T03:40:22;628.93;;;127.40;;
31091;SDS011;67728;53.122;12.776;2024-02-26T03:41:54;629.60;;;125.63;;
31091;SDS011;67728;53.122;12.776;2024-02-26T03:43:26;631.73;;;127.57;;
31091;SDS011;67728;53.122;12.776;2024-02-26T03:44:56;643.23;;;126.47;;
31091;SDS011;67728;53.122;12.776;2024-02-26T03:46:28;665.20;;;133.23;;
31091;SDS011;67728;53.122;12.776;2024-02-26T03:47:58;626.73;;;123.23;;
31091;SDS011;67728;53.122;12.776;2024-02-26T03:49:30;624.90;;;122.93;;
31091;SDS011;67728;53.122;12.776;2024-02-26T03:51:01;629.23;;;123.70;;
31091;SDS011;67728;53.122;12.776;2024-02-26T03:52:34;626.13;;;125.97;;
31091;SDS011;67728;53.122;12.776;2024-02-26T03:54:05;624.20;;;119.87;;
31091;SDS011;67728;53.122;12.776;2024-02-26T03:55:36;626.50;;;120.20;;
31091;SDS011;67728;53.122;12.776;2024-02-26T03:57:07;623.13;;;121.87;;
31091;SDS011;67728;53.122;12.776;2024-02-26T03:58:39;631.07;;;123.83;;
31091;SDS011;67728;53.122;12.776;2024-02-26T04:00:11;633.20;;;121.63;;
31091;SDS011;67728;53.122;12.776;2024-02-26T04:01:44;659.67;;;121.83;;
31091;SDS011;67728;53.122;12.776;2024-02-26T04:03:17;627.50;;;128.07;;
31091;SDS011;67728;53.122;12.776;2024-02-26T04:04:47;639.57;;;131.63;;
31091;SDS011;67728;53.122;12.776;2024-02-26T04:06:19;624.80;;;125.37;;
31091;SDS011;67728;53.122;12.776;2024-02-26T04:07:52;633.47;;;134.93;;
31091;SDS011;67728;53.122;12.776;2024-02-26T04:09:24;626.83;;;130.70;;
31091;SDS011;67728;53.122;12.776;2024-02-26T04:10:54;635.57;;;140.90;;
31091;SDS011;67728;53.122;12.776;2024-02-26T04:12:26;627.40;;;132.67;;
31091;SDS011;67728;53.122;12.776;2024-02-26T04:13:57;630.97;;;133.87;;
31091;SDS011;67728;53.122;12.776;2024-02-26T04:15:28;629.70;;;135.07;;
31091;SDS011;67728;53.122;12.776;2024-02-26T04:16:59;623.60;;;128.80;;
31091;SDS011;67728;53.122;12.776;2024-02-26T04:18:31;627.43;;;131.97;;
31091;SDS011;67728;53.122;12.776;2024-02-26T04:20:02;620.37;;;129.30;;
31091;SDS011;67728;53.122;12.776;2024-02-26T04:21:34;664.17;;;136.67;;
31091;SDS011;67728;53.122;12.776;2024-02-26T04:23:07;626.10;;;134.23;;
31091;SDS011;67728;53.122;12.776;2024-02-26T04:24:38;630.20;;;139.57;;
31091;SDS011;67728;53.122;12.776;2024-02-26T04:26:09;625.90;;;134.43;;
31091;SDS011;67728;53.122;12.776;2024-02-26T04:27:40;627.67;;;127.70;;
31091;SDS011;67728;53.122;12.776;2024-02-26T04:29:12;622.20;;;128.53;;
31091;SDS011;67728;53.122;12.776;2024-02-26T04:30:42;627.73;;;131.30;;
31091;SDS011;67728;53.122;12.776;2024-02-26T04:32:14;627.10;;;137.53;;
31091;SDS011;67728;53.122;12.776;2024-02-26T04:33:45;624.53;;;124.73;;
31091;SDS011;67728;53.122;12.776;2024-02-26T04:35:16;623.07;;;133.63;;
31091;SDS011;67728;53.122;12.776;2024-02-26T04:36:47;666.23;;;135.63;;
31091;SDS011;67728;53.122;12.776;2024-02-26T04:38:20;626.30;;;130.07;;
31091;SDS011;67728;53.122;12.776;2024-02-26T04:39:52;627.90;;;134.83;;
31091;SDS011;67728;53.122;12.776;2024-02-26T04:41:24;630.17;;;139.20;;
31091;SDS011;67728;53.122;12.776;2024-02-26T04:42:54;629.87;;;133.40;;
31091;SDS011;67728;53.122;12.776;2024-02-26T04:44:27;631.80;;;137.37;;
31091;SDS011;67728;53.122;12.776;2024-02-26T04:45:58;626.53;;;123.40;;
31091;SDS011;67728;53.122;12.776;2024-02-26T04:47:29;633.30;;;143.00;;
31091;SDS011;67728;53.122;12.776;2024-02-26T04:49:00;631.63;;;139.93;;
31091;SDS011;67728;53.122;12.776;2024-02-26T04:50:31;632.93;;;145.33;;
31091;SDS011;67728;53.122;12.776;2024-02-26T04:52:02;632.77;;;147.43;;
31091;SDS011;67728;53.122;12.776;2024-02-26T04:53:36;635.23;;;146.97;;
31091;SDS011;67728;53.122;12.776;2024-02-26T04:55:07;630.90;;;141.97;;
31091;SDS011;67728;53.122;12.776;2024-02-26T04:56:39;634.73;;;140.77;;
31091;SDS011;67728;53.122;12.776;2024-02-26T04:58:09;628.53;;;137.27;;
31091;SDS011;67728;53.122;12.776;2024-02-26T04:59:41;641.63;;;137.20;;
31091;SDS011;67728;53.122;12.776;2024-02-26T05:01:12;642.70;;;139.13;;
31091;SDS011;67728;53.122;12.776;2024-02-26T05:02:46;631.20;;;134.87;;
31091;SDS011;67728;53.122;12.776;2024-02-26T05:04:16;623.50;;;126.57;;
31091;SDS011;67728;53.122;12.776;2024-02-26T05:05:48;627.37;;;131.63;;
31091;SDS011;67728;53.122;12.776;2024-02-26T05:07:18;623.70;;;124.43;;
31091;SDS011;67728;53.122;12.776;2024-02-26T05:08:51;626.97;;;124.47;;
31091;SDS011;67728;53.122;12.776;2024-02-26T05:10:22;625.20;;;127.20;;
31091;SDS011;67728;53.122;12.776;2024-02-26T05:11:54;669.70;;;131.03;;
31091;SDS011;67728;53.122;12.776;2024-02-26T05:13:24;628.17;;;127.80;;
31091;SDS011;67728;53.122;12.776;2024-02-26T05:14:56;631.93;;;147.20;;
31091;SDS011;67728;53.122;12.776;2024-02-26T05:16:27;624.67;;;138.70;;
31091;SDS011;67728;53.122;12.776;2024-02-26T05:18:00;628.67;;;136.53;;
31091;SDS011;67728;53.122;12.776;2024-02-26T05:19:32;627.97;;;132.50;;
31091;SDS011;67728;53.122;12.776;2024-02-26T05:21:03;636.60;;;141.73;;
31091;SDS011;67728;53.122;12.776;2024-02-26T05:22:35;627.67;;;133.57;;
31091;SDS011;67728;53.122;12.776;2024-02-26T05:24:07;625.77;;;130.03;;
31091;SDS011;67728;53.122;12.776;2024-02-26T05:25:38;626.47;;;141.43;;
31091;SDS011;67728;53.122;12.776;2024-02-26T05:27:09;629.83;;;146.77;;
31091;SDS011;67728;53.122;12.776;2024-02-26T05:28:42;632.63;;;150.00;;
31091;SDS011;67728;53.122;12.776;2024-02-26T05:30:13;631.23;;;151.53;;
31091;SDS011;67728;53.122;12.776;2024-02-26T05:31:45;624.40;;;128.83;;
31091;SDS011;67728;53.122;12.776;2024-02-26T05:33:16;623.10;;;125.23;;
31091;SDS011;67728;53.122;12.776;2024-02-26T05:34:47;624.97;;;124.10;;
31091;SDS011;67728;53.122;12.776;2024-02-26T05:36:18;621.77;;;122.10;;
31091;SDS011;67728;53.122;12.776;2024-02-26T05:37:52;623.93;;;124.27;;
31091;SDS011;67728;53.122;12.776;2024-02-26T05:39:25;629.43;;;125.03;;
31091;SDS011;67728;53.122;12.776;2024-02-26T05:40:57;619.67;;;120.17;;
31091;SDS011;67728;53.122;12.776;2024-02-26T05:42:28;623.10;;;124.90;;
31091;SDS011;67728;53.122;12.776;2024-02-26T05:44:00;625.67;;;126.77;;
31091;SDS011;67728;53.122;12.776;2024-02-26T05:45:31;623.90;;;123.63;;
31091;SDS011;67728;53.122;12.776;2024-02-26T05:47:03;662.37;;;125.90;;
31091;SDS011;67728;53.122;12.776;2024-02-26T05:48:34;661.70;;;129.90;;
31091;SDS011;67728;53.122;12.776;2024-02-26T05:50:06;699.03;;;131.33;;
31091;SDS011;67728;53.122;12.776;2024-02-26T05:51:37;679.47;;;132.00;;
31091;SDS011;67728;53.122;12.776;2024-02-26T05:53:09;726.70;;;132.80;;
31091;SDS011;67728;53.122;12.776;2024-02-26T05:54:41;732.27;;;136.93;;
31091;SDS011;67728;53.122;12.776;2024-02-26T05:56:13;756.17;;;137.10;;
31091;SDS011;67728;53.122;12.776;2024-02-26T05:57:43;663.87;;;130.47;;
31091;SDS011;67728;53.122;12.776;2024-02-26T05:59:15;720.67;;;134.37;;
31091;SDS011;67728;53.122;12.776;2024-02-26T06:00:46;685.53;;;130.33;;
31091;SDS011;67728;53.122;12.776;2024-02-26T06:02:17;725.30;;;134.10;;
31091;SDS011;67728;53.122;12.776;2024-02-26T06:03:48;659.93;;;126.27;;
31091;SDS011;67728;53.122;12.776;2024-02-26T06:05:20;669.73;;;131.67;;
31091;SDS011;67728;53.122;12.776;2024-02-26T06:06:50;720.33;;;136.27;;
31091;SDS011;67728;53.122;12.776;2024-02-26T06:08:22;637.43;;;135.87;;
31091;SDS011;67728;53.122;12.776;2024-02-26T06:09:54;638.13;;;150.13;;
31091;SDS011;67728;53.122;12.776;2024-02-26T06:11:26;640.60;;;139.13;;
31091;SDS011;67728;53.122;12.776;2024-02-26T06:12:58;636.03;;;140.83;;
31091;SDS011;67728;53.122;12.776;2024-02-26T06:14:28;632.57;;;135.63;;
31091;SDS011;67728;53.122;12.776;2024-02-26T06:16:00;657.43;;;144.50;;
31091;SDS011;67728;53.122;12.776;2024-02-26T06:17:32;638.53;;;140.17;;
31091;SDS011;67728;53.122;12.776;2024-02-26T06:19:03;646.20;;;143.73;;
31091;SDS011;67728;53.122;12.776;2024-02-26T06:20:35;642.37;;;137.47;;
31091;SDS011;67728;53.122;12.776;2024-02-26T06:22:06;666.97;;;143.07;;
31091;SDS011;67728;53.122;12.776;2024-02-26T06:23:37;653.47;;;172.63;;
31091;SDS011;67728;53.122;12.776;2024-02-26T06:25:09;632.53;;;141.63;;
31091;SDS011;67728;53.122;12.776;2024-02-26T06:26:41;652.27;;;141.03;;
31091;SDS011;67728;53.122;12.776;2024-02-26T06:28:12;640.37;;;138.73;;
31091;SDS011;67728;53.122;12.776;2024-02-26T06:29:44;642.30;;;141.73;;
31091;SDS011;67728;53.122;12.776;2024-02-26T06:31:14;644.40;;;143.43;;
31091;SDS011;67728;53.122;12.776;2024-02-26T06:32:47;645.93;;;139.03;;
31091;SDS011;67728;53.122;12.776;2024-02-26T06:34:18;635.47;;;136.67;;
31091;SDS011;67728;53.122;12.776;2024-02-26T06:35:49;659.03;;;140.20;;
31091;SDS011;67728;53.122;12.776;2024-02-26T06:37:20;683.77;;;142.70;;
31091;SDS011;67728;53.122;12.776;2024-02-26T06:38:52;649.50;;;145.20;;
31091;SDS011;67728;53.122;12.776;2024-02-26T06:40:25;650.50;;;142.10;;
31091;SDS011;67728;53.122;12.776;2024-02-26T06:41:57;646.97;;;144.70;;
31091;SDS011;67728;53.122;12.776;2024-02-26T06:43:30;652.23;;;147.10;;
31091;SDS011;67728;53.122;12.776;2024-02-26T06:45:02;655.00;;;166.63;;
31091;SDS011;67728;53.122;12.776;2024-02-26T06:46:34;649.77;;;151.23;;
31091;SDS011;67728;53.122;12.776;2024-02-26T06:48:06;649.17;;;159.27;;
31091;SDS011;67728;53.122;12.776;2024-02-26T06:49:37;638.00;;;151.97;;
31091;SDS011;67728;53.122;12.776;2024-02-26T06:51:09;657.97;;;157.00;;
31091;SDS011;67728;53.122;12.776;2024-02-26T06:52:43;678.37;;;161.03;;
31091;SDS011;67728;53.122;12.776;2024-02-26T06:54:15;677.67;;;162.47;;
31091;SDS011;67728;53.122;12.776;2024-02-26T06:55:47;659.93;;;158.87;;
31091;SDS011;67728;53.122;12.776;2024-02-26T06:57:20;671.40;;;163.50;;
31091;SDS011;67728;53.122;12.776;2024-02-26T06:58:51;678.20;;;165.23;;
31091;SDS011;67728;53.122;12.776;2024-02-26T07:00:22;674.37;;;171.70;;
31091;SDS011;67728;53.122;12.776;2024-02-26T07:01:54;674.80;;;165.33;;
31091;SDS011;67728;53.122;12.776;2024-02-26T07:03:25;690.63;;;173.73;;
31091;SDS011;67728;53.122;12.776;2024-02-26T07:04:56;666.33;;;158.77;;
31091;SDS011;67728;53.122;12.776;2024-02-26T07:06:28;673.47;;;167.20;;
31091;SDS011;67728;53.122;12.776;2024-02-26T07:07:59;679.93;;;169.23;;
31091;SDS011;67728;53.122;12.776;2024-02-26T07:09:31;666.23;;;168.57;;
31091;SDS011;67728;53.122;12.776;2024-02-26T07:11:03;673.87;;;169.57;;
31091;SDS011;67728;53.122;12.776;2024-02-26T07:12:38;653.97;;;166.20;;
31091;SDS011;67728;53.122;12.776;2024-02-26T07:14:11;669.07;;;164.60;;
31091;SDS011;67728;53.122;12.776;2024-02-26T07:15:42;664.70;;;168.17;;
31091;SDS011;67728;53.122;12.776;2024-02-26T07:17:14;675.97;;;172.17;;
31091;SDS011;67728;53.122;12.776;2024-02-26T07:18:46;677.90;;;172.33;;
31091;SDS011;67728;53.122;12.776;2024-02-26T07:20:17;677.53;;;175.13;;
31091;SDS011;67728;53.122;12.776;2024-02-26T07:21:48;697.70;;;183.33;;
31091;SDS011;67728;53.122;12.776;2024-02-26T07:23:20;683.20;;;188.27;;
31091;SDS011;67728;53.122;12.776;2024-02-26T07:24:50;689.43;;;185.27;;
31091;SDS011;67728;53.122;12.776;2024-02-26T07:26:23;681.27;;;183.10;;
31091;SDS011;67728;53.122;12.776;2024-02-26T07:27:56;677.40;;;177.17;;
31091;SDS011;67728;53.122;12.776;2024-02-26T07:29:27;674.27;;;178.37;;
31091;SDS011;67728;53.122;12.776;2024-02-26T07:30:58;680.23;;;178.73;;
31091;SDS011;67728;53.122;12.776;2024-02-26T07:32:29;688.13;;;182.07;;
31091;SDS011;67728;53.122;12.776;2024-02-26T07:34:00;694.13;;;183.47;;
31091;SDS011;67728;53.122;12.776;2024-02-26T07:35:32;672.07;;;177.90;;
31091;SDS011;67728;53.122;12.776;2024-02-26T07:37:03;671.23;;;178.37;;
31091;SDS011;67728;53.122;12.776;2024-02-26T07:38:36;681.67;;;183.17;;
31091;SDS011;67728;53.122;12.776;2024-02-26T07:40:08;653.63;;;179.67;;
31091;SDS011;67728;53.122;12.776;2024-02-26T07:41:41;659.40;;;190.87;;
31091;SDS011;67728;53.122;12.776;2024-02-26T07:43:16;658.17;;;182.17;;
31091;SDS011;67728;53.122;12.776;2024-02-26T07:44:48;661.70;;;179.03;;
31091;SDS011;67728;53.122;12.776;2024-02-26T07:46:19;654.23;;;176.47;;
31091;SDS011;67728;53.122;12.776;2024-02-26T07:47:51;654.20;;;175.07;;
31091;SDS011;67728;53.122;12.776;2024-02-26T07:49:21;649.63;;;176.17;;
31091;SDS011;67728;53.122;12.776;2024-02-26T07:50:53;659.77;;;182.93;;
31091;SDS011;67728;53.122;12.776;2024-02-26T07:52:24;659.33;;;178.60;;
31091;SDS011;67728;53.122;12.776;2024-02-26T07:53:55;659.03;;;184.07;;
31091;SDS011;67728;53.122;12.776;2024-02-26T07:55:27;655.00;;;182.90;;
31091;SDS011;67728;53.122;12.776;2024-02-26T07:57:00;658.33;;;184.80;;
31091;SDS011;67728;53.122;12.776;2024-02-26T07:58:31;659.17;;;186.33;;
31091;SDS011;67728;53.122;12.776;2024-02-26T08:00:03;658.40;;;186.50;;
31091;SDS011;67728;53.122;12.776;2024-02-26T08:01:37;661.53;;;186.23;;
31091;SDS011;67728;53.122;12.776;2024-02-26T08:03:11;661.90;;;192.40;;
31091;SDS011;67728;53.122;12.776;2024-02-26T08:04:43;664.10;;;192.47;;
31091;SDS011;67728;53.122;12.776;2024-02-26T08:06:16;668.10;;;193.57;;
31091;SDS011;67728;53.122;12.776;2024-02-26T08:07:46;672.47;;;194.23;;
31091;SDS011;67728;53.122;12.776;2024-02-26T08:09:18;659.60;;;187.93;;
31091;SDS011;67728;53.122;12.776;2024-02-26T08:10:50;664.73;;;188.80;;
31091;SDS011;67728;53.122;12.776;2024-02-26T08:12:22;659.97;;;187.80;;
31091;SDS011;67728;53.122;12.776;2024-02-26T08:13:54;664.27;;;192.27;;
31091;SDS011;67728;53.122;12.776;2024-02-26T08:15:24;664.00;;;195.10;;
31091;SDS011;67728;53.122;12.776;2024-02-26T08:16:56;666.33;;;199.50;;
31091;SDS011;67728;53.122;12.776;2024-02-26T08:18:27;669.10;;;197.80;;
31091;SDS011;67728;53.122;12.776;2024-02-26T08:19:58;664.10;;;194.63;;
31091;SDS011;67728;53.122;12.776;2024-02-26T08:21:29;668.00;;;200.00;;
31091;SDS011;67728;53.122;12.776;2024-02-26T08:23:01;670.30;;;201.23;;
31091;SDS011;67728;53.122;12.776;2024-02-26T08:24:32;670.30;;;202.63;;
31091;SDS011;67728;53.122;12.776;2024-02-26T08:26:03;669.00;;;202.23;;
31091;SDS011;67728;53.122;12.776;2024-02-26T08:27:38;666.77;;;202.10;;
31091;SDS011;67728;53.122;12.776;2024-02-26T08:29:10;667.67;;;200.13;;
31091;SDS011;67728;53.122;12.776;2024-02-26T08:30:40;665.03;;;179.60;;
31091;SDS011;67728;53.122;12.776;2024-02-26T08:32:12;663.40;;;174.30;;